createdAt,value
2023-04-18T00:00:23.616Z,21.30
2023-04-18T00:01:23.640Z,21.26
2023-04-18T00:02:23.864Z,21.27
2023-04-18T00:03:23.994Z,21.30
2023-04-18T00:04:23.926Z,21.30
2023-04-18T00:05:23.831Z,21.30
2023-04-18T00:06:23.865Z,21.29
2023-04-18T00:07:23.954Z,21.29
2023-04-18T00:08:23.990Z,21.27
2023-04-18T00:09:24.018Z,21.27
2023-04-18T00:10:24.077Z,21.27
2023-04-18T00:11:24.122Z,21.29
2023-04-18T00:12:24.173Z,21.27
2023-04-18T00:13:24.192Z,21.27
2023-04-18T00:14:24.273Z,21.25
2023-04-18T00:15:24.315Z,21.23
2023-04-18T00:16:24.386Z,21.22
2023-04-18T00:17:24.454Z,21.25
2023-04-18T00:18:24.477Z,21.25
2023-04-18T00:19:24.528Z,21.22
2023-04-18T00:20:24.586Z,21.22
2023-04-18T00:21:24.642Z,21.23
2023-04-18T00:22:24.672Z,21.20
2023-04-18T00:23:24.739Z,21.19
2023-04-18T00:24:24.808Z,21.22
2023-04-18T00:25:24.846Z,21.14
2023-04-18T00:26:24.887Z,21.19
2023-04-18T00:27:24.956Z,21.22
2023-04-18T00:28:24.984Z,21.20
2023-04-18T00:29:25.049Z,21.19
2023-04-18T00:30:25.099Z,21.19
2023-04-18T00:31:25.238Z,21.19
2023-04-18T00:32:25.241Z,21.16
2023-04-18T00:33:25.263Z,21.16
2023-04-18T00:34:25.314Z,21.14
2023-04-18T00:35:25.360Z,21.14
2023-04-18T00:36:25.420Z,21.16
2023-04-18T00:37:25.466Z,21.13
2023-04-18T00:38:25.551Z,21.11
2023-04-18T00:39:25.591Z,21.11
2023-04-18T00:40:25.683Z,21.10
2023-04-18T00:41:25.707Z,21.09
2023-04-18T00:42:25.774Z,21.10
2023-04-18T00:43:25.837Z,21.10
2023-04-18T00:44:25.916Z,21.09
2023-04-18T00:45:25.967Z,21.06
2023-04-18T00:46:26.070Z,21.09
2023-04-18T00:47:26.132Z,21.07
2023-04-18T00:48:26.134Z,21.06
2023-04-18T00:49:26.222Z,21.07
2023-04-18T00:50:26.279Z,21.07
2023-04-18T00:51:26.324Z,21.06
2023-04-18T00:52:26.380Z,21.03
2023-04-18T00:53:26.453Z,21.06
2023-04-18T00:54:26.554Z,21.06
2023-04-18T00:55:26.634Z,21.04
2023-04-18T00:56:26.661Z,21.06
2023-04-18T00:57:26.687Z,21.07
2023-04-18T00:58:26.839Z,21.04
2023-04-18T00:59:26.812Z,21.03
2023-04-18T01:00:26.937Z,21.02
2023-04-18T01:01:26.994Z,21.04
2023-04-18T01:02:27.125Z,21.06
2023-04-18T01:03:27.201Z,21.03
2023-04-18T01:04:27.243Z,21.03
2023-04-18T01:05:27.223Z,21.02
2023-04-18T01:06:27.272Z,21.04
2023-04-18T01:07:27.321Z,21.06
2023-04-18T01:08:27.384Z,21.04
2023-04-18T01:09:27.458Z,21.03
2023-04-18T01:10:27.501Z,21.04
2023-04-18T01:11:27.569Z,21.02
2023-04-18T01:12:27.639Z,21.03
2023-04-18T01:13:27.670Z,21.02
2023-04-18T01:14:27.745Z,21.02
2023-04-18T01:15:27.773Z,21.03
2023-04-18T01:16:27.895Z,21.02
2023-04-18T01:17:27.915Z,21.03
2023-04-18T01:18:27.995Z,21.00
2023-04-18T01:19:28.045Z,20.99
2023-04-18T01:20:28.119Z,21.02
2023-04-18T01:21:28.149Z,21.00
2023-04-18T01:22:28.245Z,21.00
2023-04-18T01:23:28.311Z,20.99
2023-04-18T01:24:28.363Z,21.02
2023-04-18T01:25:28.415Z,21.02
2023-04-18T01:26:28.468Z,21.02
2023-04-18T01:27:28.488Z,21.02
2023-04-18T01:28:28.587Z,21.00
2023-04-18T01:29:28.661Z,20.99
2023-04-18T01:30:28.701Z,20.99
2023-04-18T01:31:28.751Z,20.99
2023-04-18T01:32:28.793Z,20.97
2023-04-18T01:33:28.825Z,20.96
2023-04-18T01:34:28.914Z,21.00
2023-04-18T01:35:28.918Z,20.97
2023-04-18T01:36:28.988Z,20.97
2023-04-18T01:37:29.039Z,20.97
2023-04-18T01:38:29.078Z,20.99
2023-04-18T01:39:29.178Z,20.99
2023-04-18T01:40:29.257Z,20.97
2023-04-18T01:41:29.257Z,20.99
2023-04-18T01:42:29.312Z,20.97
2023-04-18T01:43:29.385Z,20.97
2023-04-18T01:44:29.470Z,20.97
2023-04-18T01:45:29.528Z,20.97
2023-04-18T01:46:29.622Z,20.99
2023-04-18T01:47:29.644Z,20.99
2023-04-18T01:48:29.713Z,20.99
2023-04-18T01:49:29.801Z,20.97
2023-04-18T01:50:29.806Z,21.00
2023-04-18T01:51:29.941Z,20.97
2023-04-18T01:52:29.964Z,20.99
2023-04-18T01:53:30.020Z,20.99
2023-04-18T01:54:30.109Z,21.00
2023-04-18T01:55:30.139Z,20.99
2023-04-18T01:56:30.164Z,20.97
2023-04-18T01:57:30.256Z,20.97
2023-04-18T01:58:30.288Z,20.99
2023-04-18T01:59:30.360Z,20.94
2023-04-18T02:00:30.456Z,20.97
2023-04-18T02:01:30.468Z,20.94
2023-04-18T02:02:30.622Z,20.93
2023-04-18T02:03:30.757Z,20.93
2023-04-18T02:04:30.614Z,20.93
2023-04-18T02:05:30.656Z,20.93
2023-04-18T02:06:30.720Z,20.93
2023-04-18T02:07:30.740Z,20.93
2023-04-18T02:08:30.785Z,20.93
2023-04-18T02:09:30.831Z,20.92
2023-04-18T02:10:30.866Z,20.93
2023-04-18T02:11:30.909Z,20.90
2023-04-18T02:12:30.972Z,20.92
2023-04-18T02:13:31.006Z,20.90
2023-04-18T02:14:31.078Z,20.90
2023-04-18T02:15:31.110Z,20.90
2023-04-18T02:16:31.190Z,20.89
2023-04-18T02:17:31.178Z,20.90
2023-04-18T02:18:31.204Z,20.90
2023-04-18T02:19:31.180Z,20.90
2023-04-18T02:20:31.200Z,20.89
2023-04-18T02:21:31.244Z,20.87
2023-04-18T02:22:31.331Z,20.90
2023-04-18T02:23:31.435Z,20.87
2023-04-18T02:24:31.389Z,20.87
2023-04-18T02:25:31.434Z,20.89
2023-04-18T02:26:31.452Z,20.89
2023-04-18T02:27:31.476Z,20.89
2023-04-18T02:28:31.508Z,20.90
2023-04-18T02:29:31.523Z,20.87
2023-04-18T02:30:31.538Z,20.87
2023-04-18T02:31:31.635Z,20.86
2023-04-18T02:32:31.669Z,20.87
2023-04-18T02:33:31.642Z,20.87
2023-04-18T02:34:31.714Z,20.86
2023-04-18T02:35:31.737Z,20.87
2023-04-18T02:36:31.710Z,20.87
2023-04-18T02:37:31.719Z,20.86
2023-04-18T02:38:31.759Z,20.84
2023-04-18T02:39:31.795Z,20.86
2023-04-18T02:40:31.743Z,20.84
2023-04-18T02:41:31.794Z,20.87
2023-04-18T02:42:31.798Z,20.87
2023-04-18T02:43:31.832Z,20.86
2023-04-18T02:44:31.821Z,20.87
2023-04-18T02:45:31.862Z,20.86
2023-04-18T02:46:31.858Z,20.83
2023-04-18T02:47:40.518Z,20.84
2023-04-18T02:48:32.875Z,20.83
2023-04-18T02:49:31.863Z,20.83
2023-04-18T02:50:31.857Z,20.80
2023-04-18T02:51:31.828Z,20.82
2023-04-18T02:52:31.811Z,20.82
2023-04-18T02:53:31.797Z,20.83
2023-04-18T02:54:31.808Z,20.82
2023-04-18T02:55:31.779Z,20.80
2023-04-18T02:56:31.787Z,20.82
2023-04-18T02:57:31.772Z,20.83
2023-04-18T02:58:31.787Z,20.82
2023-04-18T02:59:32.022Z,20.78
2023-04-18T03:00:31.751Z,20.79
2023-04-18T03:01:31.781Z,20.80
2023-04-18T03:02:32.153Z,20.80
2023-04-18T03:03:31.777Z,20.79
2023-04-18T03:04:31.725Z,20.79
2023-04-18T03:05:31.706Z,20.79
2023-04-18T03:06:31.745Z,20.79
2023-04-18T03:07:31.715Z,20.79
2023-04-18T03:08:31.721Z,20.78
2023-04-18T03:09:31.704Z,20.80
2023-04-18T03:10:31.700Z,20.78
2023-04-18T03:11:31.790Z,20.79
2023-04-18T03:12:31.659Z,20.79
2023-04-18T03:13:31.674Z,20.76
2023-04-18T03:14:31.655Z,20.79
2023-04-18T03:15:31.663Z,20.76
2023-04-18T03:16:31.668Z,20.76
2023-04-18T03:17:31.728Z,20.76
2023-04-18T03:18:31.606Z,20.75
2023-04-18T03:19:31.618Z,20.76
2023-04-18T03:20:31.603Z,20.75
2023-04-18T03:21:31.617Z,20.75
2023-04-18T03:22:31.603Z,20.76
2023-04-18T03:23:31.610Z,20.73
2023-04-18T03:24:31.595Z,20.73
2023-04-18T03:25:31.581Z,20.73
2023-04-18T03:26:31.562Z,20.73
2023-04-18T03:27:31.558Z,20.72
2023-04-18T03:28:31.555Z,20.75
2023-04-18T03:29:31.575Z,20.72
2023-04-18T03:30:31.522Z,20.69
2023-04-18T03:31:31.585Z,20.70
2023-04-18T03:32:31.550Z,20.68
2023-04-18T03:33:31.515Z,20.72
2023-04-18T03:34:31.502Z,20.70
2023-04-18T03:35:31.508Z,20.70
2023-04-18T03:36:31.490Z,20.70
2023-04-18T03:37:31.487Z,20.70
2023-04-18T03:38:31.461Z,20.70
2023-04-18T03:39:31.476Z,20.72
2023-04-18T03:40:31.444Z,20.69
2023-04-18T03:41:31.457Z,20.72
2023-04-18T03:42:31.454Z,20.70
2023-04-18T03:43:31.459Z,20.70
2023-04-18T03:44:31.454Z,20.69
2023-04-18T03:45:31.424Z,20.68
2023-04-18T03:46:31.475Z,20.66
2023-04-18T03:47:31.475Z,20.68
2023-04-18T03:48:31.429Z,20.66
2023-04-18T03:49:31.418Z,20.68
2023-04-18T03:50:31.392Z,20.68
2023-04-18T03:51:31.364Z,20.69
2023-04-18T03:52:31.422Z,20.70
2023-04-18T03:53:31.357Z,20.68
2023-04-18T03:54:31.376Z,20.70
2023-04-18T03:55:31.349Z,20.70
2023-04-18T03:56:31.349Z,20.69
2023-04-18T03:57:31.350Z,20.70
2023-04-18T03:58:31.357Z,20.70
2023-04-18T03:59:31.338Z,20.70
2023-04-18T04:00:31.407Z,20.69
2023-04-18T04:01:31.355Z,20.69
2023-04-18T04:02:31.455Z,20.69
2023-04-18T04:03:31.406Z,20.68
2023-04-18T04:04:31.333Z,20.68
2023-04-18T04:05:31.317Z,20.69
2023-04-18T04:06:31.269Z,20.70
2023-04-18T04:07:31.313Z,20.68
2023-04-18T04:08:31.274Z,20.70
2023-04-18T04:09:31.268Z,20.69
2023-04-18T04:10:31.226Z,20.69
2023-04-18T04:11:31.238Z,20.68
2023-04-18T04:12:31.233Z,20.68
2023-04-18T04:13:31.208Z,20.68
2023-04-18T04:14:31.243Z,20.69
2023-04-18T04:15:31.204Z,20.68
2023-04-18T04:16:31.191Z,20.69
2023-04-18T04:17:31.207Z,20.68
2023-04-18T04:18:31.259Z,20.66
2023-04-18T04:19:31.151Z,20.65
2023-04-18T04:20:31.162Z,20.63
2023-04-18T04:21:31.158Z,20.63
2023-04-18T04:22:31.147Z,20.63
2023-04-18T04:23:31.154Z,20.63
2023-04-18T04:24:31.133Z,20.62
2023-04-18T04:25:31.143Z,20.57
2023-04-18T04:26:31.111Z,20.62
2023-04-18T04:27:31.127Z,20.62
2023-04-18T04:28:31.137Z,20.60
2023-04-18T04:29:31.119Z,20.57
2023-04-18T04:30:31.095Z,20.59
2023-04-18T04:31:31.109Z,20.59
2023-04-18T04:32:31.155Z,20.59
2023-04-18T04:33:31.089Z,20.57
2023-04-18T04:34:31.100Z,20.59
2023-04-18T04:35:31.107Z,20.59
2023-04-18T04:36:31.054Z,20.59
2023-04-18T04:37:31.159Z,20.59
2023-04-18T04:38:31.348Z,20.59
2023-04-18T04:39:31.067Z,20.59
2023-04-18T04:40:31.096Z,20.60
2023-04-18T04:41:31.074Z,20.56
2023-04-18T04:42:31.074Z,20.57
2023-04-18T04:43:31.104Z,20.60
2023-04-18T04:44:31.102Z,20.56
2023-04-18T04:45:31.139Z,20.57
2023-04-18T04:46:31.071Z,20.57
2023-04-18T04:47:31.158Z,20.57
2023-04-18T04:48:31.078Z,20.56
2023-04-18T04:49:31.070Z,20.56
2023-04-18T04:50:31.084Z,20.60
2023-04-18T04:51:31.059Z,20.63
2023-04-18T04:52:31.057Z,20.63
2023-04-18T04:53:31.079Z,20.69
2023-04-18T04:54:31.095Z,20.73
2023-04-18T04:55:31.088Z,20.72
2023-04-18T04:56:31.081Z,20.73
2023-04-18T04:57:31.076Z,20.73
2023-04-18T04:58:31.107Z,20.78
2023-04-18T04:59:31.073Z,20.75
2023-04-18T05:00:31.108Z,20.78
2023-04-18T05:01:31.157Z,20.76
2023-04-18T05:02:31.226Z,20.78
2023-04-18T05:03:31.308Z,20.79
2023-04-18T05:04:31.234Z,20.79
2023-04-18T05:05:31.112Z,20.82
2023-04-18T05:06:31.130Z,20.80
2023-04-18T05:07:31.121Z,20.82
2023-04-18T05:08:31.146Z,20.80
2023-04-18T05:09:31.186Z,20.79
2023-04-18T05:10:31.189Z,20.82
2023-04-18T05:11:31.196Z,20.82
2023-04-18T05:12:31.166Z,20.82
2023-04-18T05:13:31.183Z,20.84
2023-04-18T05:14:31.180Z,20.84
2023-04-18T05:15:31.197Z,20.84
2023-04-18T05:16:31.219Z,20.86
2023-04-18T05:17:31.207Z,20.84
2023-04-18T05:18:33.002Z,20.83
2023-04-18T05:19:31.203Z,20.87
2023-04-18T05:20:31.230Z,20.86
2023-04-18T05:21:31.193Z,20.90
2023-04-18T05:22:31.222Z,20.87
2023-04-18T05:23:31.240Z,20.92
2023-04-18T05:24:31.167Z,20.89
2023-04-18T05:25:31.183Z,20.89
2023-04-18T05:26:31.188Z,20.92
2023-04-18T05:27:31.174Z,20.92
2023-04-18T05:28:31.159Z,20.94
2023-04-18T05:29:31.166Z,20.93
2023-04-18T05:30:31.167Z,20.96
2023-04-18T05:31:31.138Z,20.94
2023-04-18T05:32:31.135Z,20.96
2023-04-18T05:33:31.108Z,20.96
2023-04-18T05:34:31.118Z,20.97
2023-04-18T05:35:31.103Z,20.97
2023-04-18T05:36:31.112Z,21.03
2023-04-18T05:37:31.101Z,21.03
2023-04-18T05:38:31.089Z,21.04
2023-04-18T05:39:31.081Z,21.07
2023-04-18T05:40:31.563Z,21.11
2023-04-18T05:41:31.058Z,21.16
2023-04-18T05:42:31.067Z,21.20
2023-04-18T05:43:31.049Z,21.26
2023-04-18T05:44:31.041Z,21.27
2023-04-18T05:45:31.051Z,21.33
2023-04-18T05:46:31.103Z,21.39
2023-04-18T05:47:31.062Z,21.46
2023-04-18T05:48:31.036Z,21.47
2023-04-18T05:49:30.997Z,21.49
2023-04-18T05:50:31.031Z,21.54
2023-04-18T05:51:30.973Z,21.60
2023-04-18T05:52:31.000Z,21.64
2023-04-18T05:53:31.003Z,21.67
2023-04-18T05:54:30.983Z,21.70
2023-04-18T05:55:30.963Z,21.72
2023-04-18T05:56:30.983Z,21.74
2023-04-18T05:57:30.988Z,21.74
2023-04-18T05:58:30.939Z,21.76
2023-04-18T05:59:30.954Z,21.74
2023-04-18T06:00:30.912Z,21.76
2023-04-18T06:01:30.999Z,21.76
2023-04-18T06:02:31.028Z,21.73
2023-04-18T06:03:31.097Z,21.73
2023-04-18T06:04:31.040Z,21.67
2023-04-18T06:05:31.346Z,21.67
2023-04-18T06:06:30.887Z,21.65
2023-04-18T06:07:31.266Z,21.63
2023-04-18T06:08:30.855Z,21.63
2023-04-18T06:09:30.865Z,21.61
2023-04-18T06:10:30.890Z,21.63
2023-04-18T06:11:30.822Z,21.58
2023-04-18T06:12:30.865Z,21.57
2023-04-18T06:13:30.845Z,21.54
2023-04-18T06:14:30.848Z,21.53
2023-04-18T06:15:30.848Z,21.50
2023-04-18T06:16:30.921Z,21.49
2023-04-18T06:17:30.921Z,21.47
2023-04-18T06:18:30.930Z,21.47
2023-04-18T06:19:30.979Z,21.47
2023-04-18T06:20:31.021Z,21.46
2023-04-18T06:21:31.051Z,21.44
2023-04-18T06:22:31.090Z,21.44
2023-04-18T06:23:31.162Z,21.43
2023-04-18T06:24:31.373Z,21.43
2023-04-18T06:25:31.223Z,21.41
2023-04-18T06:26:31.241Z,21.40
2023-04-18T06:27:32.044Z,21.39
2023-04-18T06:28:31.357Z,21.40
2023-04-18T06:29:31.347Z,21.41
2023-04-18T06:30:31.427Z,21.39
2023-04-18T06:31:31.498Z,21.39
2023-04-18T06:32:31.563Z,21.40
2023-04-18T06:33:31.534Z,21.40
2023-04-18T06:34:31.589Z,21.41
2023-04-18T06:35:31.601Z,21.41
2023-04-18T06:36:31.659Z,21.41
2023-04-18T06:37:31.695Z,21.44
2023-04-18T06:38:31.766Z,21.41
2023-04-18T06:39:31.926Z,21.39
2023-04-18T06:40:31.826Z,21.40
2023-04-18T06:41:31.825Z,21.43
2023-04-18T06:42:31.902Z,21.43
2023-04-18T06:43:31.957Z,21.43
2023-04-18T06:44:31.965Z,21.43
2023-04-18T06:45:32.112Z,21.43
2023-04-18T06:46:32.061Z,21.46
2023-04-18T06:47:32.072Z,21.47
2023-04-18T06:48:32.080Z,21.46
2023-04-18T06:49:32.128Z,21.47
2023-04-18T06:50:32.149Z,21.44
2023-04-18T06:51:32.228Z,21.47
2023-04-18T06:52:32.234Z,21.49
2023-04-18T06:53:32.264Z,21.50
2023-04-18T06:54:32.276Z,21.53
2023-04-18T06:55:32.320Z,21.51
2023-04-18T06:56:34.417Z,21.51
2023-04-18T06:57:32.346Z,21.53
2023-04-18T06:58:32.319Z,21.53
2023-04-18T06:59:32.337Z,21.54
2023-04-18T07:00:32.345Z,21.53
2023-04-18T07:01:32.411Z,21.56
2023-04-18T07:02:32.451Z,21.57
2023-04-18T07:03:32.369Z,21.56
2023-04-18T07:04:32.352Z,21.57
2023-04-18T07:05:32.542Z,21.57
2023-04-18T07:06:33.047Z,21.60
2023-04-18T07:07:32.244Z,21.60
2023-04-18T07:08:32.263Z,21.60
2023-04-18T07:09:32.270Z,21.60
2023-04-18T07:10:32.242Z,21.63
2023-04-18T07:11:32.268Z,21.63
2023-04-18T07:12:32.235Z,21.63
2023-04-18T07:13:32.229Z,21.63
2023-04-18T07:14:34.082Z,21.63
2023-04-18T07:15:32.207Z,21.65
2023-04-18T07:16:32.235Z,21.61
2023-04-18T07:17:32.237Z,21.64
2023-04-18T07:18:37.965Z,21.65
2023-04-18T07:19:33.159Z,21.65
2023-04-18T07:20:32.174Z,21.63
2023-04-18T07:21:32.148Z,21.67
2023-04-18T07:22:32.137Z,21.64
2023-04-18T07:23:32.118Z,21.65
2023-04-18T07:24:32.127Z,21.70
2023-04-18T07:25:32.156Z,21.68
2023-04-18T07:26:32.112Z,21.68
2023-04-18T07:27:32.132Z,21.72
2023-04-18T07:28:32.147Z,21.70
2023-04-18T07:29:32.076Z,21.72
2023-04-18T07:30:32.117Z,21.73
2023-04-18T07:31:32.185Z,21.72
2023-04-18T07:32:32.090Z,21.74
2023-04-18T07:33:32.070Z,21.74
2023-04-18T07:34:32.049Z,21.76
2023-04-18T07:35:32.086Z,21.78
2023-04-18T07:36:32.047Z,21.81
2023-04-18T07:37:32.021Z,21.83
2023-04-18T07:38:32.024Z,21.83
2023-04-18T07:39:32.056Z,21.84
2023-04-18T07:40:32.073Z,21.86
2023-04-18T07:41:32.057Z,21.87
2023-04-18T07:42:32.101Z,21.88
2023-04-18T07:43:32.176Z,21.88
2023-04-18T07:44:32.108Z,21.93
2023-04-18T07:45:32.582Z,21.94
2023-04-18T07:46:32.172Z,22.03
2023-04-18T07:47:33.254Z,22.10
2023-04-18T07:48:32.177Z,22.15
2023-04-18T07:49:32.200Z,22.21
2023-04-18T07:50:32.605Z,22.27
2023-04-18T07:51:32.319Z,22.37
2023-04-18T07:52:32.344Z,22.45
2023-04-18T07:53:32.423Z,22.52
2023-04-18T07:54:32.462Z,22.60
2023-04-18T07:55:32.511Z,22.64
2023-04-18T07:56:32.567Z,22.70
2023-04-18T07:57:32.630Z,22.78
2023-04-18T07:58:32.690Z,22.81
2023-04-18T07:59:32.731Z,22.93
2023-04-18T08:00:32.822Z,22.97
2023-04-18T08:01:32.811Z,22.99
2023-04-18T08:02:33.011Z,23.02
2023-04-18T08:03:32.988Z,23.09
2023-04-18T08:04:33.169Z,23.08
2023-04-18T08:05:33.023Z,23.14
2023-04-18T08:06:32.973Z,23.18
2023-04-18T08:07:33.003Z,23.18
2023-04-18T08:08:33.021Z,23.21
2023-04-18T08:09:33.013Z,23.22
2023-04-18T08:10:33.048Z,23.26
2023-04-18T08:11:33.090Z,23.25
2023-04-18T08:12:33.081Z,23.32
2023-04-18T08:13:33.072Z,23.33
2023-04-18T08:14:33.070Z,23.38
2023-04-18T08:15:33.213Z,23.40
2023-04-18T08:16:33.087Z,23.42
2023-04-18T08:17:33.098Z,23.48
2023-04-18T08:18:33.111Z,23.55
2023-04-18T08:19:33.083Z,23.56
2023-04-18T08:20:33.073Z,23.61
2023-04-18T08:21:33.098Z,23.62
2023-04-18T08:22:33.135Z,23.65
2023-04-18T08:23:33.159Z,23.68
2023-04-18T08:24:33.174Z,23.70
2023-04-18T08:25:33.172Z,23.72
2023-04-18T08:26:33.234Z,23.79
2023-04-18T08:27:33.242Z,23.79
2023-04-18T08:28:33.274Z,23.82
2023-04-18T08:29:33.301Z,23.85
2023-04-18T08:30:33.336Z,23.86
2023-04-18T08:31:33.467Z,23.89
2023-04-18T08:32:33.483Z,23.88
2023-04-18T08:33:33.530Z,23.89
2023-04-18T08:34:33.545Z,23.90
2023-04-18T08:35:33.623Z,23.83
2023-04-18T08:36:34.106Z,23.85
2023-04-18T08:37:33.794Z,23.89
2023-04-18T08:38:33.804Z,23.90
2023-04-18T08:39:33.881Z,23.93
2023-04-18T08:40:33.917Z,23.93
2023-04-18T08:41:34.081Z,23.93
2023-04-18T08:42:34.032Z,23.89
2023-04-18T08:43:34.109Z,23.89
2023-04-18T08:44:34.153Z,23.89
2023-04-18T08:45:34.284Z,23.86
2023-04-18T08:46:34.588Z,23.88
2023-04-18T08:47:34.367Z,23.90
2023-04-18T08:48:34.385Z,23.88
2023-04-18T08:49:34.359Z,23.89
2023-04-18T08:50:34.389Z,23.89
2023-04-18T08:51:34.598Z,23.86
2023-04-18T08:52:34.445Z,23.85
2023-04-18T08:53:34.448Z,23.80
2023-04-18T08:54:34.441Z,23.79
2023-04-18T08:55:34.400Z,23.78
2023-04-18T08:56:34.628Z,23.78
2023-04-18T08:57:34.414Z,23.76
2023-04-18T08:58:34.407Z,23.76
2023-04-18T08:59:34.415Z,23.73
2023-04-18T09:00:34.414Z,23.73
2023-04-18T09:01:34.459Z,23.70
2023-04-18T09:02:34.478Z,23.69
2023-04-18T09:03:34.464Z,23.68
2023-04-18T09:04:34.467Z,23.66
2023-04-18T09:05:34.412Z,23.68
2023-04-18T09:06:34.611Z,23.66
2023-04-18T09:07:34.389Z,23.66
2023-04-18T09:08:34.387Z,23.64
2023-04-18T09:09:34.430Z,23.65
2023-04-18T09:10:34.435Z,23.64
2023-04-18T09:11:34.438Z,23.64
2023-04-18T09:12:34.423Z,23.64
2023-04-18T09:13:34.417Z,23.64
2023-04-18T09:14:34.390Z,23.64
2023-04-18T09:15:34.444Z,23.65
2023-04-18T09:16:34.496Z,23.62
2023-04-18T09:17:34.514Z,23.64
2023-04-18T09:18:34.390Z,23.62
2023-04-18T09:19:34.694Z,23.64
2023-04-18T09:20:34.561Z,23.62
2023-04-18T09:21:34.404Z,23.65
2023-04-18T09:22:34.409Z,23.65
2023-04-18T09:23:34.423Z,23.66
2023-04-18T09:24:34.477Z,23.64
2023-04-18T09:25:34.509Z,23.64
2023-04-18T09:26:34.426Z,23.65
2023-04-18T09:27:34.419Z,23.64
2023-04-18T09:28:34.415Z,23.65
2023-04-18T09:29:34.400Z,23.66
2023-04-18T09:30:34.439Z,23.68
2023-04-18T09:31:34.806Z,23.66
2023-04-18T09:32:34.424Z,23.69
2023-04-18T09:33:34.409Z,23.66
2023-04-18T09:34:34.416Z,23.69
2023-04-18T09:35:34.472Z,23.68
2023-04-18T09:36:34.676Z,23.70
2023-04-18T09:37:34.402Z,23.69
2023-04-18T09:38:34.383Z,23.72
2023-04-18T09:39:34.412Z,23.70
2023-04-18T09:40:34.402Z,23.70
2023-04-18T09:41:34.647Z,23.72
2023-04-18T09:42:34.386Z,23.72
2023-04-18T09:43:34.367Z,23.65
2023-04-18T09:44:34.364Z,23.64
2023-04-18T09:45:34.411Z,23.69
2023-04-18T09:46:34.569Z,23.70
2023-04-18T09:47:34.429Z,23.65
2023-04-18T09:48:34.418Z,23.69
2023-04-18T09:49:34.415Z,23.73
2023-04-18T09:50:34.498Z,23.78
2023-04-18T09:51:34.692Z,23.80
2023-04-18T09:52:34.600Z,23.82
2023-04-18T09:53:34.649Z,23.88
2023-04-18T09:54:34.730Z,23.88
2023-04-18T09:55:34.767Z,23.89
2023-04-18T09:56:34.809Z,23.88
2023-04-18T09:57:34.892Z,23.92
2023-04-18T09:58:34.955Z,23.93
2023-04-18T09:59:34.998Z,23.96
2023-04-18T10:00:35.070Z,24.01
2023-04-18T10:01:35.136Z,24.01
2023-04-18T10:02:35.247Z,24.05
2023-04-18T10:03:35.330Z,24.09
2023-04-18T10:04:35.584Z,24.06
2023-04-18T10:05:35.263Z,24.09
2023-04-18T10:06:35.283Z,24.11
2023-04-18T10:07:35.657Z,24.12
2023-04-18T10:08:35.369Z,24.12
2023-04-18T10:09:35.410Z,24.16
2023-04-18T10:10:35.427Z,24.15
2023-04-18T10:11:35.463Z,24.17
2023-04-18T10:12:35.487Z,24.17
2023-04-18T10:13:35.509Z,24.17
2023-04-18T10:14:35.555Z,24.19
2023-04-18T10:15:35.624Z,24.22
2023-04-18T10:16:36.426Z,24.20
2023-04-18T10:17:35.644Z,24.25
2023-04-18T10:18:35.694Z,24.23
2023-04-18T10:19:35.692Z,24.23
2023-04-18T10:20:35.876Z,24.25
2023-04-18T10:21:35.724Z,24.29
2023-04-18T10:22:35.732Z,24.29
2023-04-18T10:23:35.820Z,24.29
2023-04-18T10:24:35.784Z,24.27
2023-04-18T10:25:35.782Z,24.29
2023-04-18T10:26:35.818Z,24.30
2023-04-18T10:27:35.823Z,24.30
2023-04-18T10:28:35.824Z,24.30
2023-04-18T10:29:35.860Z,24.30
2023-04-18T10:30:35.863Z,24.35
2023-04-18T10:31:35.945Z,24.32
2023-04-18T10:32:35.869Z,24.30
2023-04-18T10:33:35.993Z,24.32
2023-04-18T10:34:36.918Z,24.33
2023-04-18T10:35:35.903Z,24.38
2023-04-18T10:36:36.174Z,24.43
2023-04-18T10:37:35.875Z,24.32
2023-04-18T10:38:35.908Z,24.42
2023-04-18T10:39:35.859Z,24.39
2023-04-18T10:40:35.829Z,24.46
2023-04-18T10:41:35.856Z,24.50
2023-04-18T10:42:35.839Z,24.56
2023-04-18T10:43:35.823Z,24.53
2023-04-18T10:44:35.810Z,24.59
2023-04-18T10:45:35.831Z,24.60
2023-04-18T10:46:35.834Z,24.63
2023-04-18T10:47:35.942Z,24.66
2023-04-18T10:48:38.621Z,24.67
2023-04-18T10:49:35.768Z,24.69
2023-04-18T10:50:35.755Z,24.69
2023-04-18T10:51:36.188Z,24.70
2023-04-18T10:52:35.897Z,24.72
2023-04-18T10:53:35.824Z,24.74
2023-04-18T10:54:35.828Z,24.72
2023-04-18T10:55:35.907Z,24.74
2023-04-18T10:56:35.781Z,24.74
2023-04-18T10:57:35.737Z,24.76
2023-04-18T10:58:35.740Z,24.73
2023-04-18T10:59:35.702Z,24.73
2023-04-18T11:00:35.728Z,24.73
2023-04-18T11:01:35.776Z,24.73
2023-04-18T11:02:35.768Z,24.70
2023-04-18T11:03:35.880Z,24.70
2023-04-18T11:04:35.697Z,24.69
2023-04-18T11:05:35.720Z,24.70
2023-04-18T11:06:35.676Z,24.66
2023-04-18T11:07:35.662Z,24.66
2023-04-18T11:08:35.858Z,24.63
2023-04-18T11:09:35.661Z,24.63
2023-04-18T11:10:35.652Z,24.59
2023-04-18T11:11:35.642Z,24.58
2023-04-18T11:12:36.374Z,24.55
2023-04-18T11:13:35.645Z,24.56
2023-04-18T11:14:35.635Z,24.56
2023-04-18T11:15:35.600Z,24.55
2023-04-18T11:16:35.695Z,24.52
2023-04-18T11:17:35.628Z,24.53
2023-04-18T11:18:35.608Z,24.52
2023-04-18T11:19:35.591Z,24.50
2023-04-18T11:20:35.569Z,24.50
2023-04-18T11:21:35.668Z,24.50
2023-04-18T11:22:35.586Z,24.50
2023-04-18T11:23:35.542Z,24.48
2023-04-18T11:24:35.602Z,24.52
2023-04-18T11:25:35.512Z,24.48
2023-04-18T11:26:36.226Z,24.46
2023-04-18T11:27:35.614Z,24.46
2023-04-18T11:28:35.513Z,24.46
2023-04-18T11:29:35.513Z,24.46
2023-04-18T11:30:35.484Z,24.46
2023-04-18T11:31:35.614Z,24.46
2023-04-18T11:32:35.755Z,24.44
2023-04-18T11:33:35.511Z,24.43
2023-04-18T11:34:35.465Z,24.40
2023-04-18T11:35:35.448Z,24.43
2023-04-18T11:36:35.472Z,24.38
2023-04-18T11:37:35.688Z,24.33
2023-04-18T11:38:35.470Z,24.36
2023-04-18T11:39:35.456Z,24.32
2023-04-18T11:40:35.471Z,24.26
2023-04-18T11:41:35.471Z,24.27
2023-04-18T11:42:35.482Z,24.25
2023-04-18T11:43:35.417Z,24.23
2023-04-18T11:44:36.352Z,24.27
2023-04-18T11:45:35.442Z,24.26
2023-04-18T11:46:35.550Z,24.23
2023-04-18T11:47:35.539Z,24.27
2023-04-18T11:48:35.554Z,24.26
2023-04-18T11:49:35.552Z,24.20
2023-04-18T11:50:35.630Z,24.25
2023-04-18T11:51:35.754Z,24.19
2023-04-18T11:52:35.743Z,24.22
2023-04-18T11:53:35.782Z,24.30
2023-04-18T11:54:35.803Z,24.32
2023-04-18T11:55:35.817Z,24.39
2023-04-18T11:56:36.943Z,24.44
2023-04-18T11:57:35.920Z,24.49
2023-04-18T11:58:35.922Z,24.53
2023-04-18T11:59:35.991Z,24.55
2023-04-18T12:00:36.018Z,24.59
2023-04-18T12:01:36.010Z,24.62
2023-04-18T12:02:36.147Z,24.67
2023-04-18T12:03:36.280Z,24.70
2023-04-18T12:04:36.241Z,24.70
2023-04-18T12:05:36.366Z,24.76
2023-04-18T12:06:36.039Z,24.76
2023-04-18T12:07:36.127Z,24.77
2023-04-18T12:08:36.062Z,24.82
2023-04-18T12:09:36.068Z,24.83
2023-04-18T12:10:36.111Z,24.85
2023-04-18T12:11:36.089Z,24.87
2023-04-18T12:12:36.100Z,24.89
2023-04-18T12:13:36.106Z,24.91
2023-04-18T12:14:36.089Z,24.93
2023-04-18T12:15:36.221Z,24.97
2023-04-18T12:16:36.097Z,25.00
2023-04-18T12:17:36.170Z,25.03
2023-04-18T12:18:36.070Z,24.99
2023-04-18T12:19:36.077Z,25.02
2023-04-18T12:20:36.083Z,25.09
2023-04-18T12:21:36.099Z,25.06
2023-04-18T12:22:36.148Z,25.05
2023-04-18T12:23:36.123Z,25.07
2023-04-18T12:24:36.087Z,25.06
2023-04-18T12:25:36.085Z,25.05
2023-04-18T12:26:36.091Z,25.02
2023-04-18T12:27:36.122Z,24.96
2023-04-18T12:28:36.090Z,24.96
2023-04-18T12:29:36.082Z,24.96
2023-04-18T12:30:37.824Z,24.93
2023-04-18T12:31:36.144Z,24.91
2023-04-18T12:32:36.151Z,24.87
2023-04-18T12:33:36.130Z,24.87
2023-04-18T12:34:36.156Z,24.87
2023-04-18T12:35:36.167Z,24.86
2023-04-18T12:36:36.152Z,24.85
2023-04-18T12:37:36.169Z,24.83
2023-04-18T12:38:36.166Z,24.83
2023-04-18T12:39:36.207Z,24.85
2023-04-18T12:40:36.231Z,24.82
2023-04-18T12:41:36.283Z,24.77
2023-04-18T12:42:36.273Z,24.79
2023-04-18T12:43:36.295Z,24.77
2023-04-18T12:44:36.343Z,24.76
2023-04-18T12:45:36.325Z,24.74
2023-04-18T12:46:36.417Z,24.74
2023-04-18T12:47:36.538Z,24.76
2023-04-18T12:48:36.417Z,24.72
2023-04-18T12:49:36.422Z,24.73
2023-04-18T12:50:36.459Z,24.73
2023-04-18T12:51:36.501Z,24.72
2023-04-18T12:52:36.514Z,24.72